Al Diriyah — HZAD — position and weather

sailwx.info

Track history (hours):
 
Tides and Currents Weather Stations Pressure Air Temp Water Temp Dewpoint Dewpoint Depression Visibility Wind Speed Wind Dir Waves Ship Positions

Al Diriyah

Last reported at 2014-Jul-22 07:31 UTC. Time now 2014-Jul-23 15:31 UTC.
Position N 38°54' E 001°26'.

Length 80 m; draft 5 m.

Type: Pleasure craft. MMSI: 403005000.

Date/timePositionNaut miles runAvg speedWind from/ knotsBaromVisibWave heightAir tempDewpointWater temp
2014-Jul-22 07:31N 38°54' E 001°26'0 0.0
2014-Jul-22 06:11N 38°54' E 001°26'0 0.0
2014-Jul-22 02:21N 38°54' E 001°26'0 0.0
2014-Jul-21 09:17N 38°54' E 001°26'5 6.8
2014-Jul-21 08:33N 38°49' E 001°25'6412.3
2014-Jul-21 03:19N 37°54' E 002°09'1013.2
2014-Jul-21 02:33N 37°46' E 002°16'  
2014-Jul-18 12:23N 37°05' E 013°34'1213.9
2014-Jul-18 11:33N 36°60' E 013°47'1413.6
2014-Jul-18 10:33N 36°53' E 014°02'1414.1
2014-Jul-18 09:33N 36°48' E 014°18'1413.7
2014-Jul-18 08:33N 36°43' E 014°34'  
Track history (hours):
 
Tides and Currents Weather Stations Pressure Air Temp Water Temp Dewpoint Dewpoint Depression Visibility Wind Speed Wind Dir Waves Ship Positions

Al Diriyah

Last reported at 2014-Jul-22 07:31 UTC. Time now 2014-Jul-23 15:31 UTC.
Position N 38°54' E 001°26'.

Length 80 m; draft 5 m.

Type: Pleasure craft. MMSI: 403005000.

Date/timePositionNaut miles runAvg speedWind from/ knotsBaromVisibWave heightAir tempDewpointWater temp
2014-Jul-22 07:31N 38°54' E 001°26'0 0.0
2014-Jul-22 06:11N 38°54' E 001°26'0 0.0
2014-Jul-22 02:21N 38°54' E 001°26'0 0.0
2014-Jul-21 09:17N 38°54' E 001°26'5 6.8
2014-Jul-21 08:33N 38°49' E 001°25'6412.3
2014-Jul-21 03:19N 37°54' E 002°09'1013.2
2014-Jul-21 02:33N 37°46' E 002°16'  
2014-Jul-18 12:23N 37°05' E 013°34'1213.9
2014-Jul-18 11:33N 36°60' E 013°47'1413.6
2014-Jul-18 10:33N 36°53' E 014°02'1414.1
2014-Jul-18 09:33N 36°48' E 014°18'1413.7
2014-Jul-18 08:33N 36°43' E 014°34'  

Dump ship's entire track history